Enterprise, Louisiana
Current Conditions -  °F | °C
As of 1:55 AM on Saturday 20 Dec 2014 (Local Time) from KHEZ Reporting Station
Overcast Overcast  
Wind Chill: 42°   Ceiling: 600
Heat Index: 46°   Visibility: 5mi
Dew Point: 43°   Wind: 8mph
Humidity: 87%   Direction: 10°N
Pressure: 30.16"   Gusts: NA
Location:  31.9°N, 91.88°W
Report Text: KHEZ 200755Z AUTO 01007KT 5SM OVC006 08/06 A3016 RMK AO1
Loading
Personal Weather Stations






























Interactive Weather Map New forecast layout! Learn more

10-Day Weather Forecast

Advertisements
Track Severe Weather on mobile